Time;durP1;ratioP1;P1;durP2;ratioP2;P2;SDS_P1;SDS_P2;PMS_P1;PMS_P2;Temp;Humidity;BMP_temperature;BMP_pressure;BME280_temperature;BME280_humidity;BME280_pressure;Samples;Min_cycle;Max_cycle;Signal;HPM_P1;HPM_P2
2022/07/07 00:00:40;;;;;;;3.58;2.12;;;;;;;15.63;73.02;100596.72;2784086;85;21019;-69
2022/07/07 00:04:42;;;;;;;3.90;2.40;;;;;;;15.61;73.24;100596.03;2800613;85;21036;-68
2022/07/07 00:08:55;;;;;;;4.55;2.87;;;;;;;15.64;73.01;100593.91;2820584;83;21007;-68
2022/07/07 00:12:56;;;;;;;2.60;2.27;;;;;;;15.68;73.00;100590.40;2804905;85;21000;-67
2022/07/07 00:16:58;;;;;;;6.90;1.98;;;;;;;15.55;72.93;100586.27;2805909;84;21074;-68
2022/07/07 00:21:00;;;;;;;2.75;2.15;;;;;;;15.47;73.28;100590.18;2792921;84;21027;-66
2022/07/07 00:25:03;;;;;;;4.78;2.52;;;;;;;15.49;73.34;100589.53;2819048;84;21024;-68
2022/07/07 00:29:12;;;;;;;4.40;2.50;;;;;;;15.58;73.29;100586.95;2836384;82;21044;-68
2022/07/07 00:33:14;;;;;;;2.47;1.87;;;;;;;15.58;73.61;100591.80;2795637;84;21032;-67
2022/07/07 00:37:16;;;;;;;3.67;2.87;;;;;;;15.56;73.53;100591.12;2805125;85;21055;-69
2022/07/07 00:41:17;;;;;;;3.67;2.50;;;;;;;15.61;73.78;100589.33;2795798;85;21018;-67
2022/07/07 00:45:19;;;;;;;3.22;1.98;;;;;;;15.67;73.49;100587.38;2797114;84;21031;-67
2022/07/07 00:49:21;;;;;;;6.80;2.10;;;;;;;15.70;73.53;100580.36;2833269;84;21533;-67
2022/07/07 00:53:23;;;;;;;2.87;2.45;;;;;;;15.70;73.52;100579.87;2820683;83;21489;-67
2022/07/07 00:57:26;;;;;;;3.27;2.42;;;;;;;15.63;73.59;100580.16;2804740;84;21083;-66
2022/07/07 01:01:43;;;;;;;4.72;2.33;;;;;;;15.61;74.08;100582.11;2855345;82;21003;-68
2022/07/07 01:05:47;;;;;;;4.03;2.33;;;;;;;15.64;74.23;100576.95;2820292;83;21023;-68
2022/07/07 01:09:49;;;;;;;7.45;2.70;;;;;;;15.68;74.66;100575.66;2845516;82;21503;-67
2022/07/07 01:13:52;;;;;;;5.10;2.50;;;;;;;15.69;74.69;100571.97;2828103;83;20984;-67
2022/07/07 01:17:53;;;;;;;2.72;1.95;;;;;;;15.74;75.22;100563.00;2799708;83;21011;-67
2022/07/07 01:22:01;;;;;;;3.85;2.40;;;;;;;15.82;75.46;100559.03;2820271;82;21027;-68
2022/07/07 01:26:10;;;;;;;4.10;2.30;;;;;;;15.90;75.65;100557.45;2836266;83;21067;-69
2022/07/07 01:30:12;;;;;;;2.62;2.35;;;;;;;15.92;75.00;100554.14;2813686;84;20999;-68
2022/07/07 01:34:13;;;;;;;5.35;2.08;;;;;;;15.90;75.39;100556.96;2819565;84;21026;-67
2022/07/07 01:38:15;;;;;;;3.37;2.22;;;;;;;15.89;75.64;100553.08;2719048;85;21082;-68
2022/07/07 01:42:16;;;;;;;9.50;3.05;;;;;;;15.90;75.67;100552.08;2777996;84;21034;-67
2022/07/07 01:46:17;;;;;;;5.20;3.05;;;;;;;15.90;75.49;100540.01;2837259;83;21015;-68
2022/07/07 01:50:28;;;;;;;2.52;1.80;;;;;;;15.91;75.40;100537.67;2817497;83;21012;-67
2022/07/07 01:54:30;;;;;;;3.17;2.62;;;;;;;15.91;74.82;100536.33;2802124;85;20980;-68
2022/07/07 01:58:32;;;;;;;4.25;2.40;;;;;;;15.87;74.92;100538.95;2802039;85;21050;-66
2022/07/07 02:02:34;;;;;;;2.60;2.20;;;;;;;15.82;74.91;100528.67;2797833;85;21109;-68
2022/07/07 02:06:36;;;;;;;3.80;1.65;;;;;;;15.78;74.85;100533.53;2805016;83;21062;-67
2022/07/07 02:14:58;;;;;;;5.47;2.10;;;;;;;15.69;74.94;100532.61;2754157;85;21008;-68
2022/07/07 02:19:05;;;;;;;2.08;1.82;;;;;;;15.67;74.97;100523.88;2802163;84;21011;-69
2022/07/07 02:23:07;;;;;;;3.20;1.87;;;;;;;15.65;74.78;100523.19;2812929;84;21045;-68
2022/07/07 02:27:08;;;;;;;6.75;2.95;;;;;;;15.63;74.86;100527.01;2748381;85;20990;-67
2022/07/07 02:31:10;;;;;;;6.35;2.30;;;;;;;15.59;74.78;100529.14;2760353;85;21067;-68
2022/07/07 02:35:12;;;;;;;3.22;2.27;;;;;;;15.57;74.72;100536.50;2785965;84;21070;-68
2022/07/07 02:39:15;;;;;;;3.45;2.77;;;;;;;15.53;74.86;100529.77;2801695;85;21023;-67
2022/07/07 02:43:18;;;;;;;5.05;2.22;;;;;;;15.49;74.92;100526.53;2807368;84;21010;-68
2022/07/07 02:47:19;;;;;;;2.25;1.65;;;;;;;15.48;75.06;100535.58;2768872;85;21076;-68
2022/07/07 02:51:21;;;;;;;3.62;1.90;;;;;;;15.50;75.31;100532.75;2859839;82;21054;-68
2022/07/07 02:55:22;;;;;;;4.40;2.52;;;;;;;15.53;75.43;100527.94;2806497;83;21038;-67
2022/07/07 02:59:24;;;;;;;1.62;1.50;;;;;;;15.46;75.59;100525.50;2784492;85;21068;-67
2022/07/07 03:03:25;;;;;;;3.92;1.87;;;;;;;15.47;75.68;100529.87;2854360;82;21022;-66
2022/07/07 03:07:27;;;;;;;2.45;2.05;;;;;;;15.51;75.85;100533.09;2752647;85;21008;-66
2022/07/07 03:11:36;;;;;;;2.17;1.92;;;;;;;15.52;76.01;100531.59;2858928;83;21011;-66
2022/07/07 03:15:37;;;;;;;2.80;1.32;;;;;;;15.51;76.36;100527.22;2854160;83;21010;-66
2022/07/07 03:19:39;;;;;;;3.67;2.00;;;;;;;15.50;76.49;100522.86;2768981;85;21667;-58
2022/07/07 03:23:40;;;;;;;2.33;1.52;;;;;;;15.54;76.74;100519.38;2889972;82;21023;-58
2022/07/07 03:27:47;;;;;;;2.05;1.37;;;;;;;15.56;77.79;100518.25;2889530;82;21117;-59
2022/07/07 03:31:48;;;;;;;8.03;1.75;;;;;;;15.58;77.66;100521.27;2779956;85;20996;-59
2022/07/07 03:35:49;;;;;;;3.10;1.95;;;;;;;15.60;78.17;100505.88;2749372;85;21019;-58
2022/07/07 03:39:50;;;;;;;2.10;1.20;;;;;;;15.65;78.19;100506.25;2775454;85;21059;-59
2022/07/07 03:43:51;;;;;;;2.55;1.40;;;;;;;15.67;78.89;100506.93;2782569;85;20980;-59
2022/07/07 03:47:56;;;;;;;7.72;3.15;;;;;;;15.78;78.40;100505.37;2844095;82;21035;-59
2022/07/07 03:51:57;;;;;;;5.92;2.67;;;;;;;15.86;77.46;100505.94;2778115;85;20968;-59
2022/07/07 03:55:59;;;;;;;2.17;1.70;;;;;;;15.88;77.82;100508.44;2783927;85;20988;-58
2022/07/07 04:00:08;;;;;;;1.55;1.45;;;;;;;15.93;77.78;100498.14;2741411;85;21035;-60
2022/07/07 04:04:11;;;;;;;2.05;1.95;;;;;;;15.96;78.18;100495.14;2706619;86;21036;-59
2022/07/07 04:08:12;;;;;;;4.92;2.25;;;;;;;16.03;78.85;100487.32;2720851;86;21091;-60
2022/07/07 04:12:13;;;;;;;4.45;1.98;;;;;;;16.06;78.82;100491.85;2714771;86;21072;-61
2022/07/07 04:16:28;;;;;;;2.70;2.05;;;;;;;16.21;78.80;100489.45;2747820;86;21088;-59
2022/07/07 04:20:32;;;;;;;10.13;2.55;;;;;;;16.29;78.25;100487.30;2808716;84;20977;-59
2022/07/07 04:24:34;;;;;;;7.22;2.58;;;;;;;16.28;80.28;100482.93;2840622;83;21007;-58
2022/07/07 04:28:37;;;;;;;39.35;6.05;;;;;;;16.33;81.52;100479.30;2800389;83;21043;-58
2022/07/07 04:32:38;;;;;;;3.12;1.92;;;;;;;16.44;80.72;100478.66;2814800;83;20987;-59
2022/07/07 04:36:59;;;;;;;4.55;2.85;;;;;;;16.63;80.09;100477.08;2810762;84;21048;-59
2022/07/07 04:41:01;;;;;;;35.25;6.58;;;;;;;16.81;79.50;100474.32;2802516;83;21000;-58
2022/07/07 04:45:07;;;;;;;4.03;1.95;;;;;;;17.06;79.01;100476.25;2728650;85;21082;-59
2022/07/07 04:49:09;;;;;;;7.62;2.10;;;;;;;17.10;78.00;100470.91;2807566;83;21023;-58
2022/07/07 04:53:22;;;;;;;4.45;2.08;;;;;;;17.25;77.93;100473.27;2839892;82;21055;-60
2022/07/07 04:57:23;;;;;;;1.60;1.50;;;;;;;17.39;77.32;100466.92;2816076;83;20960;-59
2022/07/07 05:01:25;;;;;;;3.75;2.22;;;;;;;17.53;77.03;100463.58;2841931;83;21055;-58
2022/07/07 05:05:26;;;;;;;4.47;2.30;;;;;;;17.64;76.06;100466.44;2849555;83;21020;-59
2022/07/07 05:09:27;;;;;;;2.62;2.20;;;;;;;17.98;75.84;100463.22;2814803;84;21517;-58
2022/07/07 05:13:29;;;;;;;2.22;1.47;;;;;;;18.33;75.46;100461.66;2805261;84;20987;-59
2022/07/07 05:17:30;;;;;;;1.45;1.35;;;;;;;18.55;74.70;100459.56;2730433;86;21374;-59
2022/07/07 05:21:31;;;;;;;4.45;2.62;;;;;;;18.62;72.80;100460.23;2759650;85;21039;-60
2022/07/07 05:25:33;;;;;;;3.75;1.50;;;;;;;18.81;73.79;100462.50;2776052;85;21030;-61
2022/07/07 05:29:34;;;;;;;7.40;2.70;;;;;;;19.38;74.06;100446.17;2761256;85;21001;-59
2022/07/07 05:33:37;;;;;;;1.40;1.30;;;;;;;20.58;71.52;100449.60;2777082;84;21015;-59
2022/07/07 05:37:40;;;;;;;3.12;1.55;;;;;;;21.71;65.93;100445.62;2790678;84;21043;-60
2022/07/07 05:41:42;;;;;;;30.00;4.20;;;;;;;22.51;62.06;100441.30;2781699;84;21039;-58
2022/07/07 05:46:11;;;;;;;1.77;1.65;;;;;;;22.75;60.03;100439.09;2789685;84;21043;-58
2022/07/07 05:50:14;;;;;;;2.85;1.42;;;;;;;22.92;59.70;100437.69;2781257;83;21086;-59
2022/07/07 05:54:15;;;;;;;2.25;1.10;;;;;;;23.06;56.34;100433.13;2770929;85;20987;-60
2022/07/07 05:58:17;;;;;;;2.42;0.93;;;;;;;23.04;53.92;100426.27;2786156;85;20972;-59
2022/07/07 06:02:18;;;;;;;0.70;0.57;;;;;;;23.18;54.10;100430.65;2879982;82;21027;-60
2022/07/07 06:06:20;;;;;;;1.57;0.60;;;;;;;23.09;52.07;100426.47;2804967;83;20984;-60
2022/07/07 06:10:21;;;;;;;3.98;0.70;;;;;;;23.19;51.16;100425.57;2785470;85;21047;-60
2022/07/07 06:14:30;;;;;;;2.27;0.80;;;;;;;23.29;52.45;100430.63;2740111;84;21305;-59
2022/07/07 06:18:32;;;;;;;1.37;0.53;;;;;;;23.47;52.29;100417.79;2831601;82;20983;-59
2022/07/07 06:22:35;;;;;;;2.00;1.40;;;;;;;23.61;51.14;100415.08;2817484;83;21017;-59
2022/07/07 06:26:37;;;;;;;3.70;0.98;;;;;;;23.59;51.24;100417.17;2859819;83;20967;-58
2022/07/07 06:30:38;;;;;;;1.50;0.70;;;;;;;23.29;51.42;100417.05;2831102;81;21058;-59
2022/07/07 06:34:43;;;;;;;5.12;0.75;;;;;;;23.15;51.74;100414.79;2859668;83;21023;-58
2022/07/07 06:38:50;;;;;;;1.80;1.00;;;;;;;22.92;49.80;100409.22;2897113;82;21062;-59
2022/07/07 06:42:52;;;;;;;0.65;0.50;;;;;;;22.95;51.83;100407.45;2822437;82;21055;-58
2022/07/07 06:46:55;;;;;;;2.70;1.20;;;;;;;22.97;50.41;100406.72;2794217;85;21027;-58
2022/07/07 06:50:56;;;;;;;2.52;0.90;;;;;;;22.96;50.21;100406.41;2853040;82;21016;-59
2022/07/07 06:59:08;;;;;;;3.80;0.90;;;;;;;23.33;48.83;100392.53;2794600;83;21091;-92
2022/07/07 07:03:10;;;;;;;1.20;0.60;;;;;;;23.55;49.31;100389.60;2824038;83;29428;-93
2022/07/07 07:07:12;;;;;;;1.50;0.68;;;;;;;23.69;47.91;100382.27;2811800;83;21081;-92
2022/07/07 07:11:14;;;;;;;0.60;0.30;;;;;;;23.77;47.66;100377.97;2840567;83;21012;-94
2022/07/07 07:15:16;;;;;;;1.30;0.42;;;;;;;23.96;47.42;100379.50;2835581;83;21072;-94
2022/07/07 07:19:17;;;;;;;1.55;0.30;;;;;;;24.23;46.64;100378.94;2839640;83;21002;-92
2022/07/07 07:23:19;;;;;;;5.35;0.80;;;;;;;24.43;45.94;100379.93;2838852;83;21021;-93
2022/07/07 07:28:19;;;;;;;2.12;0.45;;;;;;;24.64;45.13;100375.53;2835697;83;20989;-94
2022/07/07 07:40:36;;;;;;;5.70;0.98;;;;;;;24.27;44.90;100365.77;2762899;84;21102;-93
2022/07/07 07:49:00;;;;;;;1.75;0.72;;;;;;;24.79;43.71;100363.57;2775538;84;21022;-93
2022/07/07 07:53:04;;;;;;;74.30;12.68;;;;;;;25.22;43.26;100350.59;2752936;84;21062;-92
2022/07/07 07:57:06;;;;;;;1.52;0.30;;;;;;;25.40;43.71;100353.08;2771800;84;21196;-94
2022/07/07 08:01:07;;;;;;;1.02;0.50;;;;;;;25.50;44.08;100348.52;2735404;84;21593;-93
2022/07/07 08:05:10;;;;;;;2.62;1.12;;;;;;;25.15;41.69;100336.73;2733804;85;21055;-92
2022/07/07 08:09:13;;;;;;;5.55;0.85;;;;;;;24.83;42.67;100357.99;2759155;84;21126;-94
2022/07/07 08:13:14;;;;;;;4.87;0.90;;;;;;;24.54;43.63;100357.48;2762548;85;21094;-92
2022/07/07 08:17:17;;;;;;;5.05;0.95;;;;;;;24.28;44.05;100358.46;2767363;83;21484;-93
2022/07/07 08:21:18;;;;;;;3.98;0.80;;;;;;;24.37;45.66;100355.80;2707698;85;20976;-94
2022/07/07 08:25:20;;;;;;;1.67;0.85;;;;;;;24.26;45.37;100349.16;2780870;84;21046;-94
2022/07/07 08:29:22;;;;;;;1.12;0.47;;;;;;;23.62;46.18;100361.91;2759403;84;21078;-92
2022/07/07 08:33:24;;;;;;;12.70;2.05;;;;;;;23.10;47.39;100377.95;2786520;83;21593;-93
2022/07/07 08:37:26;;;;;;;5.17;0.82;;;;;;;22.00;55.20;100393.67;2771017;82;21523;-92
2022/07/07 08:41:28;;;;;;;2.87;1.07;;;;;;;21.15;59.11;100397.15;2792807;82;21094;-92
2022/07/07 08:45:30;;;;;;;3.27;1.02;;;;;;;20.46;62.93;100406.02;2750947;84;21451;-93
2022/07/07 08:49:32;;;;;;;1.50;0.98;;;;;;;19.80;63.16;100400.27;2785039;83;21042;-91
2022/07/07 08:53:37;;;;;;;3.25;1.00;;;;;;;19.70;64.87;100418.08;2764529;85;21070;-92
2022/07/07 08:57:39;;;;;;;1.57;1.35;;;;;;;19.58;67.36;100421.41;2785234;84;21086;-93
2022/07/07 09:01:45;;;;;;;2.12;1.42;;;;;;;19.25;69.61;100427.37;2791037;83;21039;-92
2022/07/07 09:05:47;;;;;;;4.35;1.15;;;;;;;19.20;70.75;100429.78;2755408;83;21550;-93
2022/07/07 09:09:52;;;;;;;1.87;1.62;;;;;;;19.00;69.97;100444.73;2801891;82;21074;-93
2022/07/07 09:14:11;;;;;;;5.53;1.27;;;;;;;18.66;71.77;100431.39;2799919;83;21094;-93
2022/07/07 09:18:34;;;;;;;2.33;1.35;;;;;;;18.61;72.22;100443.73;2751963;83;21019;-92
2022/07/07 09:22:55;;;;;;;4.70;1.45;;;;;;;18.70;73.54;100455.65;2759597;83;21514;-93
2022/07/07 09:26:56;;;;;;;7.80;2.58;;;;;;;18.43;73.74;100460.11;2781058;85;21047;-93
2022/07/07 09:30:58;;;;;;;5.40;1.55;;;;;;;18.10;74.65;100450.27;2751385;85;21090;-93
2022/07/07 09:38:13;;;;;;;3.00;2.05;;;;;;;18.04;75.80;100453.66;2782231;85;21034;-93
2022/07/07 09:39:04;;;;;;;0.95;0.88;;;;;;;18.08;75.83;100446.42;2778682;83;21063;-94
2022/07/07 09:43:06;;;;;;;1.45;1.27;;;;;;;18.11;74.62;100447.42;2798236;82;21046;-93
2022/07/07 09:47:10;;;;;;;2.77;1.65;;;;;;;18.26;73.87;100444.00;2730199;85;21011;-91
2022/07/07 09:51:19;;;;;;;1.77;1.30;;;;;;;18.36;73.54;100442.45;2755054;83;21085;-92
2022/07/07 09:55:20;;;;;;;2.85;2.05;;;;;;;18.75;71.72;100439.45;2772447;85;21109;-93
2022/07/07 09:59:22;;;;;;;4.90;1.47;;;;;;;19.21;71.77;100431.45;2724261;85;21026;-93
2022/07/07 10:03:23;;;;;;;2.08;1.52;;;;;;;19.68;69.68;100417.42;2778207;84;21043;-92
2022/07/07 10:07:29;;;;;;;25.05;5.90;;;;;;;20.19;67.63;100409.69;2764769;83;21060;-93
2022/07/07 10:11:43;;;;;;;2.25;1.10;;;;;;;20.58;65.64;100401.78;2770580;84;21066;-92
2022/07/07 10:15:45;;;;;;;2.33;1.10;;;;;;;21.02;62.47;100400.53;2751142;83;21075;-94
2022/07/07 10:19:48;;;;;;;7.78;1.67;;;;;;;21.24;59.23;100395.47;2748332;84;21031;-93
2022/07/07 10:23:50;;;;;;;12.53;2.33;;;;;;;21.56;60.82;100391.05;2777009;84;21573;-91
2022/07/07 10:27:53;;;;;;;3.80;1.67;;;;;;;21.85;58.70;100391.09;2781518;83;21023;-92
2022/07/07 10:31:54;;;;;;;1.40;0.62;;;;;;;22.26;58.62;100388.39;2760878;83;21077;-93
2022/07/07 10:35:56;;;;;;;1.90;0.98;;;;;;;22.70;57.39;100371.09;2754539;84;21093;-92
2022/07/07 10:39:58;;;;;;;1.27;1.17;;;;;;;22.93;56.48;100371.56;2756098;84;21059;-94
2022/07/07 10:44:05;;;;;;;14.90;1.70;;;;;;;23.28;56.47;100366.52;2743385;84;21062;-92
2022/07/07 10:48:07;;;;;;;4.20;0.72;;;;;;;23.48;54.68;100360.25;2772914;85;21069;-92
2022/07/07 10:52:15;;;;;;;2.33;1.10;;;;;;;23.66;53.21;100350.12;2789520;84;21356;-94
2022/07/07 10:56:17;;;;;;;8.83;1.87;;;;;;;23.86;53.21;100343.81;2788129;82;20987;-92
2022/07/07 11:00:27;;;;;;;2.98;0.65;;;;;;;23.84;54.09;100349.98;2796532;82;21581;-94
2022/07/07 11:04:47;;;;;;;3.42;0.95;;;;;;;23.90;53.80;100345.91;2761671;84;21059;-94
2022/07/07 11:09:01;;;;;;;4.20;0.80;;;;;;;24.04;54.51;100344.00;2753558;85;21096;-90
2022/07/07 11:13:27;;;;;;;1.00;0.80;;;;;;;24.09;52.56;100342.02;2763536;85;21102;-93
2022/07/07 11:17:34;;;;;;;1.17;0.68;;;;;;;24.05;52.76;100335.31;2771840;85;21043;-93
2022/07/07 11:21:45;;;;;;;0.88;0.75;;;;;;;24.31;54.56;100333.02;2776304;84;21094;-92
2022/07/07 11:25:47;;;;;;;0.78;0.50;;;;;;;24.57;51.98;100331.24;2757616;84;21009;-93
2022/07/07 11:29:54;;;;;;;0.72;0.30;;;;;;;24.87;52.53;100331.20;2752535;84;21098;-92
2022/07/07 11:33:57;;;;;;;1.95;0.85;;;;;;;24.94;51.95;100325.17;2783651;84;21009;-93
2022/07/07 11:38:00;;;;;;;31.42;5.53;;;;;;;24.96;52.36;100324.42;2739954;83;21022;-94
2022/07/07 11:42:05;;;;;;;1.05;0.40;;;;;;;25.00;51.94;100320.74;2798028;84;21058;-93
2022/07/07 11:46:06;;;;;;;;;;;;;;;24.94;51.36;100320.55;2746334;85;21397;-93
2022/07/07 11:50:09;;;;;;;1.75;1.00;;;;;;;24.58;50.23;100313.88;2744510;85;20125;-92
2022/07/07 11:54:10;;;;;;;2.52;0.60;;;;;;;24.25;50.52;100319.77;2803876;83;21182;-93
2022/07/07 11:58:12;;;;;;;0.72;0.55;;;;;;;23.95;51.21;100323.51;2784960;83;21011;-91
2022/07/07 12:02:19;;;;;;;1.05;0.60;;;;;;;23.98;52.67;100316.31;2744739;83;21558;-93
2022/07/07 12:06:24;;;;;;;1.07;0.62;;;;;;;23.95;52.48;100316.72;2777204;84;21027;-94
2022/07/07 12:10:39;;;;;;;2.47;0.60;;;;;;;23.81;53.04;100311.34;2775521;85;21039;-92
2022/07/07 12:14:44;;;;;;;1.85;0.50;;;;;;;23.61;52.96;100313.27;2787110;82;21102;-93
2022/07/07 12:18:45;;;;;;;2.30;0.85;;;;;;;23.56;53.78;100314.41;2779414;83;21397;-93
2022/07/07 12:22:58;;;;;;;0.72;0.53;;;;;;;23.46;53.00;100308.91;2728369;84;21582;-93
2022/07/07 12:27:00;;;;;;;2.62;1.02;;;;;;;23.43;53.03;100313.40;2777451;83;21001;-89
2022/07/07 12:31:01;;;;;;;1.50;0.50;;;;;;;23.30;53.27;100317.47;2764993;84;21011;-92
2022/07/07 12:35:03;;;;;;;2.92;0.60;;;;;;;23.06;54.27;100319.74;2785118;83;21078;-94
2022/07/07 12:39:05;;;;;;;0.85;0.72;;;;;;;23.02;55.22;100317.14;2778651;83;21510;-92
2022/07/07 12:43:10;;;;;;;1.42;0.78;;;;;;;22.93;56.14;100315.97;2754184;84;21394;-93
2022/07/07 12:47:12;;;;;;;1.30;0.60;;;;;;;22.87;56.01;100314.09;2753290;84;21557;-92
2022/07/07 12:51:14;;;;;;;0.72;0.40;;;;;;;22.76;55.87;100325.02;2752470;84;21051;-94
2022/07/07 12:55:15;;;;;;;4.08;1.37;;;;;;;22.76;55.16;100318.75;2792039;84;21078;-93
2022/07/07 12:59:21;;;;;;;2.02;0.57;;;;;;;22.74;55.50;100319.48;2735859;84;21000;-94
2022/07/07 13:03:22;;;;;;;2.33;0.42;;;;;;;22.54;56.34;100318.41;2778519;84;21011;-93
2022/07/07 13:07:24;;;;;;;1.57;0.72;;;;;;;22.52;56.78;100331.84;2779075;84;21078;-95
2022/07/07 13:11:26;;;;;;;20.02;1.95;;;;;;;22.52;57.00;100327.27;2756840;84;21042;-94
2022/07/07 13:15:27;;;;;;;2.80;0.80;;;;;;;22.53;57.67;100329.44;2763394;83;21110;-95
2022/07/07 13:19:29;;;;;;;1.50;1.40;;;;;;;22.23;58.29;100332.45;2774302;84;21677;-93
2022/07/07 13:23:31;;;;;;;1.95;1.45;;;;;;;22.11;59.14;100322.17;2769325;83;21039;-92
2022/07/07 13:31:41;;;;;;;1.25;0.90;;;;;;;22.17;60.46;100334.59;2792264;83;21074;-93
2022/07/07 13:35:42;;;;;;;4.70;1.70;;;;;;;22.03;60.10;100333.19;2768804;83;21042;-93
2022/07/07 13:39:43;;;;;;;7.10;2.65;;;;;;;21.84;60.88;100334.73;2747375;85;21021;-93
2022/07/07 13:43:46;;;;;;;5.17;2.15;;;;;;;21.83;61.46;100333.92;2781127;84;21102;-94
2022/07/07 13:47:48;;;;;;;3.95;2.00;;;;;;;21.86;61.53;100328.59;2784020;83;21078;-93
2022/07/07 13:51:50;;;;;;;4.42;2.17;;;;;;;21.86;61.33;100334.55;2762787;83;21034;-93
2022/07/07 13:55:52;;;;;;;3.77;2.45;;;;;;;21.99;62.12;100322.41;2776273;84;21005;-93
2022/07/07 13:59:53;;;;;;;9.80;2.15;;;;;;;22.11;61.97;100324.06;2759615;84;21054;-93
2022/07/07 14:03:55;;;;;;;1.17;1.07;;;;;;;22.30;61.22;100319.75;2788205;83;21051;-92
2022/07/07 14:08:09;;;;;;;2.35;1.62;;;;;;;22.30;61.52;100315.69;2783303;83;21007;-93
2022/07/07 14:12:11;;;;;;;1.47;1.35;;;;;;;22.29;62.17;100318.08;2741314;83;21006;-92
2022/07/07 14:16:13;;;;;;;0.88;0.80;;;;;;;22.24;62.43;100325.45;2762336;85;21652;-92
2022/07/07 14:24:25;;;;;;;1.92;1.15;;;;;;;22.52;62.69;100319.14;2704786;84;72998;-89
2022/07/07 14:28:27;;;;;;;3.05;0.93;;;;;;;22.85;62.52;100311.26;2711293;85;21616;-94
2022/07/07 14:32:30;;;;;;;1.57;1.30;;;;;;;23.01;61.28;100309.50;2701074;86;21086;-93
2022/07/07 14:36:33;;;;;;;0.57;0.50;;;;;;;23.25;60.56;100309.92;2722636;86;21057;-94
2022/07/07 14:40:34;;;;;;;2.30;1.12;;;;;;;23.37;60.70;100307.44;2694149;86;21061;-93
2022/07/07 14:44:36;;;;;;;3.17;1.30;;;;;;;23.45;59.90;100304.52;2733943;81;21145;-89
2022/07/07 14:48:38;;;;;;;1.87;1.20;;;;;;;23.43;59.41;100301.19;2788213;84;21513;-89
2022/07/07 14:52:39;;;;;;;1.37;1.27;;;;;;;23.41;59.28;100303.28;2658564;87;21097;-90
2022/07/07 14:56:41;;;;;;;1.45;1.35;;;;;;;23.33;60.60;100304.84;2786514;84;21108;-89
2022/07/07 15:00:43;;;;;;;10.68;1.85;;;;;;;23.15;60.60;100300.84;2718968;84;21038;-89
2022/07/07 15:04:45;;;;;;;2.67;1.55;;;;;;;23.06;60.86;100304.28;2769050;84;21054;-90
2022/07/07 15:08:46;;;;;;;1.42;1.15;;;;;;;23.00;61.40;100314.62;2732123;85;21152;-91
2022/07/07 15:12:48;;;;;;;0.78;0.70;;;;;;;22.82;60.62;100315.23;2760680;84;21073;-91
2022/07/07 15:16:52;;;;;;;1.77;1.52;;;;;;;22.76;60.88;100307.41;2765665;84;21073;-91
2022/07/07 15:20:55;;;;;;;1.52;1.22;;;;;;;22.57;61.23;100315.79;2765945;86;21600;-91
2022/07/07 15:24:56;;;;;;;1.70;0.88;;;;;;;22.58;62.05;100319.35;2756696;84;21053;-90
2022/07/07 15:28:58;;;;;;;2.02;1.40;;;;;;;22.47;62.04;100314.83;2765587;84;21062;-91
2022/07/07 15:32:59;;;;;;;2.33;1.17;;;;;;;22.45;62.17;100321.48;2764205;86;21088;-90
2022/07/07 15:37:01;;;;;;;4.10;1.40;;;;;;;22.30;63.11;100323.81;2762850;84;21019;-91
2022/07/07 15:41:10;;;;;;;2.45;1.32;;;;;;;22.04;62.85;100321.31;2767827;84;21061;-92
2022/07/07 15:45:12;;;;;;;1.35;1.25;;;;;;;21.85;63.21;100324.22;2774956;84;21062;-92
2022/07/07 15:49:13;;;;;;;1.75;1.32;;;;;;;21.62;63.65;100329.90;2742524;85;21078;-91
2022/07/07 15:53:14;;;;;;;2.20;1.98;;;;;;;21.43;64.41;100332.27;2738773;86;21633;-91
2022/07/07 15:57:16;;;;;;;3.15;2.65;;;;;;;21.57;64.49;100334.54;2739801;86;21050;-91
2022/07/07 16:01:17;;;;;;;7.37;2.52;;;;;;;21.64;64.94;100335.95;2741697;86;21067;-91
2022/07/07 16:05:19;;;;;;;3.67;2.75;;;;;;;21.68;64.68;100338.60;2752968;85;21479;-91
2022/07/07 16:09:20;;;;;;;3.85;3.35;;;;;;;21.64;64.96;100337.30;2746456;85;21090;-90
2022/07/07 16:13:22;;;;;;;3.37;2.10;;;;;;;21.53;65.26;100342.20;2721244;86;21577;-88
2022/07/07 16:17:23;;;;;;;2.83;2.45;;;;;;;21.45;65.12;100341.52;2743356;84;21427;-92
2022/07/07 16:21:24;;;;;;;3.33;2.90;;;;;;;21.39;65.28;100340.42;2739207;86;21649;-90
2022/07/07 16:25:25;;;;;;;4.75;3.12;;;;;;;21.31;66.30;100341.41;2735935;85;21083;-90
2022/07/07 16:29:27;;;;;;;4.03;2.50;;;;;;;21.14;66.98;100348.97;2727931;86;21063;-90
2022/07/07 16:33:28;;;;;;;3.58;3.25;;;;;;;21.09;68.75;100348.72;2740634;85;21581;-91
2022/07/07 16:37:30;;;;;;;3.47;2.65;;;;;;;21.00;69.23;100352.06;2704537;85;21066;-90
2022/07/07 16:41:32;;;;;;;3.80;2.67;;;;;;;21.01;68.98;100355.09;2733454;85;21054;-90
2022/07/07 16:45:35;;;;;;;3.72;2.95;;;;;;;20.93;69.16;100350.65;2745722;86;21655;-91
2022/07/07 16:49:36;;;;;;;2.22;1.62;;;;;;;21.02;68.33;100357.27;2773999;84;21089;-91
2022/07/07 16:53:38;;;;;;;6.25;2.47;;;;;;;20.82;67.96;100355.20;2798411;83;21053;-91
2022/07/07 16:57:40;;;;;;;2.72;2.25;;;;;;;20.71;68.70;100350.28;2779428;84;21085;-91
2022/07/07 17:01:41;;;;;;;2.20;2.00;;;;;;;20.65;69.13;100346.47;2799718;84;21077;-91
2022/07/07 17:05:43;;;;;;;14.63;4.28;;;;;;;20.59;69.47;100349.41;2772426;84;21053;-91
2022/07/07 17:09:45;;;;;;;5.00;2.12;;;;;;;20.64;69.64;100352.41;2776719;84;21279;-90
2022/07/07 17:13:47;;;;;;;2.70;2.15;;;;;;;20.71;69.62;100342.17;2726359;84;21061;-90
2022/07/07 17:17:49;;;;;;;2.85;2.08;;;;;;;20.79;69.46;100344.74;2743611;85;21038;-90
2022/07/07 17:21:50;;;;;;;1.95;1.85;;;;;;;20.95;69.35;100331.01;2739953;85;21042;-90
2022/07/07 17:25:51;;;;;;;15.68;4.55;;;;;;;21.03;68.71;100331.89;2751975;85;21027;-89
2022/07/07 17:29:53;;;;;;;2.00;1.50;;;;;;;21.03;68.71;100327.84;2747783;85;21117;-91
2022/07/07 17:33:54;;;;;;;3.08;1.42;;;;;;;20.90;68.93;100329.41;2741981;85;21082;-90
2022/07/07 17:37:55;;;;;;;4.03;1.95;;;;;;;20.80;69.64;100323.47;2752865;85;21026;-91
2022/07/07 17:41:58;;;;;;;1.98;1.80;;;;;;;20.84;69.78;100332.89;2744697;85;21102;-91
2022/07/07 17:45:59;;;;;;;1.32;1.00;;;;;;;20.86;70.17;100329.48;2743900;83;20954;-92
2022/07/07 17:50:01;;;;;;;2.27;1.72;;;;;;;20.89;69.53;100328.23;2798250;83;21375;-93
2022/07/07 17:54:03;;;;;;;1.50;1.40;;;;;;;20.88;69.55;100324.71;2781906;85;20972;-94
2022/07/07 17:58:04;;;;;;;16.23;4.65;;;;;;;20.86;69.61;100328.13;2783149;83;21003;-91
2022/07/07 18:02:06;;;;;;;4.40;2.70;;;;;;;20.82;69.74;100334.92;2797368;82;20998;-89
2022/07/07 18:06:08;;;;;;;2.10;1.90;;;;;;;20.79;69.84;100336.63;2795680;83;21040;-91
2022/07/07 18:10:12;;;;;;;2.58;2.10;;;;;;;20.66;70.58;100335.48;2780935;83;21020;-91
2022/07/07 18:14:15;;;;;;;3.95;1.98;;;;;;;20.61;70.79;100336.55;2777516;83;21044;-89
2022/07/07 18:18:16;;;;;;;2.17;1.98;;;;;;;20.44;71.34;100341.85;2787871;85;21012;-86
2022/07/07 18:22:17;;;;;;;2.20;1.85;;;;;;;20.28;72.12;100354.57;2789428;83;21024;-86
2022/07/07 18:26:19;;;;;;;1.92;1.65;;;;;;;20.19;72.41;100353.83;2805787;83;21076;-88
2022/07/07 18:30:20;;;;;;;1.98;1.67;;;;;;;20.11;72.90;100360.16;2805604;83;21046;-88
2022/07/07 18:34:21;;;;;;;2.95;2.05;;;;;;;20.05;73.12;100364.98;2797205;83;21122;-90
2022/07/07 18:38:23;;;;;;;8.23;2.87;;;;;;;19.96;73.34;100366.08;2801975;83;21645;-88
2022/07/07 18:42:24;;;;;;;2.35;1.62;;;;;;;19.95;73.51;100367.10;2786784;83;20996;-88
2022/07/07 18:46:25;;;;;;;2.15;1.95;;;;;;;19.93;73.58;100368.63;2745323;83;21607;-90
2022/07/07 18:50:27;;;;;;;2.17;2.00;;;;;;;19.83;74.23;100371.56;2746542;83;21041;-88
2022/07/07 18:54:30;;;;;;;3.30;2.75;;;;;;;19.82;74.28;100369.06;2771141;83;21020;-90
2022/07/07 18:58:31;;;;;;;3.75;2.35;;;;;;;19.87;74.00;100376.09;2705783;83;21008;-88
2022/07/07 19:02:33;;;;;;;3.30;2.35;;;;;;;19.82;74.37;100380.69;2810918;83;21036;-87
2022/07/07 19:06:35;;;;;;;2.50;2.25;;;;;;;19.82;74.70;100388.78;2735277;86;21050;-88
2022/07/07 19:10:36;;;;;;;2.65;2.20;;;;;;;19.82;74.82;100386.61;2732808;84;21070;-88
2022/07/07 19:14:37;;;;;;;18.45;5.30;;;;;;;19.75;75.37;100396.45;2712243;86;21070;-88
2022/07/07 19:18:39;;;;;;;2.80;2.47;;;;;;;19.73;75.34;100403.39;2691260;86;21038;-87